createdAt,value
2022-09-15T00:00:00.190Z,0
2022-09-15T00:05:00.159Z,0
2022-09-15T00:10:00.196Z,0
2022-09-15T00:15:00.165Z,0
2022-09-15T00:20:00.182Z,0
2022-09-15T00:25:00.181Z,0
2022-09-15T00:30:00.233Z,0
2022-09-15T00:35:00.176Z,0
2022-09-15T00:40:00.263Z,0
2022-09-15T00:45:00.178Z,0
2022-09-15T00:50:00.172Z,0
2022-09-15T00:55:00.176Z,0
2022-09-15T01:00:00.202Z,0
2022-09-15T01:05:00.149Z,0
2022-09-15T01:10:00.185Z,0
2022-09-15T01:15:00.188Z,0
2022-09-15T01:20:00.251Z,0
2022-09-15T01:25:00.183Z,0
2022-09-15T01:30:00.180Z,0
2022-09-15T01:35:00.147Z,0
2022-09-15T01:40:00.291Z,0
2022-09-15T01:45:00.169Z,0
2022-09-15T01:50:00.166Z,0
2022-09-15T01:55:00.183Z,0
2022-09-15T02:00:00.206Z,0
2022-09-15T02:05:00.193Z,0
2022-09-15T02:10:00.350Z,0
2022-09-15T02:15:00.305Z,0
2022-09-15T02:20:00.179Z,0
2022-09-15T02:25:00.175Z,0
2022-09-15T02:30:00.206Z,0
2022-09-15T02:35:00.162Z,0
2022-09-15T02:40:00.393Z,0
2022-09-15T02:45:00.151Z,0
2022-09-15T02:50:00.229Z,0
2022-09-15T02:55:00.153Z,0
2022-09-15T03:00:00.252Z,0
2022-09-15T03:05:00.186Z,0
2022-09-15T03:10:00.170Z,0
2022-09-15T03:15:00.166Z,0
2022-09-15T03:20:00.181Z,0
2022-09-15T03:25:00.180Z,0
2022-09-15T03:30:00.234Z,0
2022-09-15T03:35:00.189Z,0
2022-09-15T03:40:00.248Z,0
2022-09-15T03:45:00.197Z,0
2022-09-15T03:50:00.177Z,0
2022-09-15T03:55:00.174Z,0
2022-09-15T04:00:00.398Z,0
2022-09-15T04:05:00.157Z,0
2022-09-15T04:10:00.187Z,0
2022-09-15T04:15:00.187Z,0
2022-09-15T04:20:00.187Z,0
2022-09-15T04:25:00.188Z,0
2022-09-15T04:30:00.198Z,0
2022-09-15T04:35:00.185Z,0
2022-09-15T04:40:00.321Z,3
2022-09-15T04:45:00.182Z,5
2022-09-15T04:50:00.204Z,9
2022-09-15T04:55:00.187Z,17
2022-09-15T05:00:00.216Z,44
2022-09-15T05:05:00.205Z,81
2022-09-15T05:10:00.201Z,103
2022-09-15T05:15:00.194Z,131
2022-09-15T05:20:00.225Z,153
2022-09-15T05:25:00.205Z,224
2022-09-15T05:30:16.493Z,316
2022-09-15T05:35:00.201Z,400
2022-09-15T05:40:00.382Z,450
2022-09-15T05:45:00.199Z,505
2022-09-15T05:50:00.208Z,718
2022-09-15T05:55:00.191Z,806
2022-09-15T06:00:00.257Z,1018
2022-09-15T06:05:00.177Z,1288
2022-09-15T06:10:00.163Z,1320
2022-09-15T06:15:00.188Z,1831
2022-09-15T06:20:00.180Z,1831
2022-09-15T06:25:00.168Z,1629
2022-09-15T06:30:00.204Z,1629
2022-09-15T06:35:00.205Z,1478
2022-09-15T06:40:00.310Z,1666
2022-09-15T06:45:00.201Z,2719
2022-09-15T06:50:00.209Z,3455
2022-09-15T06:55:00.195Z,3899
2022-09-15T07:00:00.220Z,3899
2022-09-15T07:05:00.196Z,4437
2022-09-15T07:10:00.194Z,2093
2022-09-15T07:15:00.175Z,1288
2022-09-15T07:20:00.232Z,1859
2022-09-15T07:25:00.184Z,2090
2022-09-15T07:30:00.185Z,2090
2022-09-15T07:35:00.195Z,2662
2022-09-15T07:40:00.290Z,3381
2022-09-15T07:45:00.188Z,5474
2022-09-15T07:50:00.198Z,6186
2022-09-15T07:55:00.209Z,4309
2022-09-15T08:00:00.207Z,5460
2022-09-15T08:05:00.185Z,6136
2022-09-15T08:10:00.183Z,8829
2022-09-15T08:15:00.205Z,12064
2022-09-15T08:20:00.187Z,10708
2022-09-15T08:25:00.183Z,13674
2022-09-15T08:30:00.278Z,12086
2022-09-15T08:35:00.171Z,19783
2022-09-15T08:40:00.298Z,20384
2022-09-15T08:45:00.161Z,14713
2022-09-15T08:50:00.201Z,14194
2022-09-15T08:55:00.192Z,11954
2022-09-15T09:00:00.245Z,7921
2022-09-15T09:05:00.201Z,8917
2022-09-15T09:10:00.191Z,13665
2022-09-15T09:15:00.206Z,17346
2022-09-15T09:20:00.193Z,17346
2022-09-15T09:25:00.742Z,22126
2022-09-15T09:30:00.219Z,21028
2022-09-15T09:35:00.193Z,16282
2022-09-15T09:40:00.301Z,18841
2022-09-15T09:45:00.182Z,25235
2022-09-15T09:50:00.191Z,36400
2022-09-15T09:55:00.190Z,30556
2022-09-15T10:00:00.220Z,32704
2022-09-15T10:05:00.252Z,30088
2022-09-15T10:10:00.206Z,29376
2022-09-15T10:15:00.200Z,20193
2022-09-15T10:20:00.197Z,20754
2022-09-15T10:25:00.192Z,18294
2022-09-15T10:30:00.226Z,14112
2022-09-15T10:35:00.213Z,15929
2022-09-15T10:40:00.327Z,17758
2022-09-15T10:45:00.208Z,18591
2022-09-15T10:50:00.203Z,23774
2022-09-15T10:55:00.197Z,28622
2022-09-15T11:00:00.221Z,30269
2022-09-15T11:05:00.170Z,92747
2022-09-15T11:10:00.200Z,37497
2022-09-15T11:15:00.196Z,31427
2022-09-15T11:20:00.205Z,37094
2022-09-15T11:25:00.221Z,21164
2022-09-15T11:30:00.203Z,22646
2022-09-15T11:35:00.177Z,31139
2022-09-15T11:40:00.466Z,25811
2022-09-15T11:45:00.201Z,10678
2022-09-15T11:50:00.211Z,5194
2022-09-15T11:55:00.195Z,6639
2022-09-15T12:00:00.225Z,31960
2022-09-15T12:05:00.197Z,10440
2022-09-15T12:10:00.200Z,8226
2022-09-15T12:15:00.212Z,6504
2022-09-15T12:20:00.233Z,11934
2022-09-15T12:25:01.288Z,17624
2022-09-15T12:30:00.253Z,30269
2022-09-15T12:35:00.207Z,53088
2022-09-15T12:40:00.337Z,35983
2022-09-15T12:45:00.197Z,21498
2022-09-15T12:50:00.196Z,27945
2022-09-15T12:55:00.186Z,58076
2022-09-15T13:00:00.211Z,15506
2022-09-15T13:05:00.194Z,23736
2022-09-15T13:10:00.199Z,28327
2022-09-15T13:15:00.207Z,21120
2022-09-15T13:20:00.192Z,21454
2022-09-15T13:25:01.641Z,42786
2022-09-15T13:30:00.194Z,30269
2022-09-15T13:35:04.477Z,78397
2022-09-15T13:40:00.329Z,48006
2022-09-15T13:45:00.216Z,91854
2022-09-15T13:50:00.189Z,86258
2022-09-15T13:55:00.201Z,18399
2022-09-15T14:00:00.301Z,74748
2022-09-15T14:05:00.202Z,74955
2022-09-15T14:10:00.258Z,33350
2022-09-15T14:15:00.205Z,15101
2022-09-15T14:20:00.235Z,77696
2022-09-15T14:25:00.215Z,75753
2022-09-15T14:30:00.192Z,71862
2022-09-15T14:35:00.272Z,10732
2022-09-15T14:40:00.348Z,10780
2022-09-15T14:50:00.219Z,5449
2022-09-15T14:55:00.193Z,4823
2022-09-15T15:00:00.328Z,5429
2022-09-15T15:05:00.235Z,23873
2022-09-15T15:10:00.206Z,9024
2022-09-15T15:15:00.195Z,4802
2022-09-15T15:20:00.186Z,2042
2022-09-15T15:25:00.185Z,15052
2022-09-15T15:30:00.182Z,6206
2022-09-15T15:35:00.162Z,6206
2022-09-15T15:40:00.389Z,38186
2022-09-15T15:45:00.215Z,40170
2022-09-15T15:50:13.224Z,34858
2022-09-15T15:55:00.193Z,3223
2022-09-15T16:00:00.207Z,2256
2022-09-15T16:05:00.169Z,26509
2022-09-15T16:10:00.205Z,5802
2022-09-15T16:15:00.225Z,4447
2022-09-15T16:20:00.199Z,4546
2022-09-15T16:25:00.192Z,3560
2022-09-15T16:30:00.216Z,2792
2022-09-15T16:35:00.179Z,1700
2022-09-15T16:40:00.350Z,633
2022-09-15T16:45:00.171Z,399
2022-09-15T16:50:00.195Z,285
2022-09-15T16:55:00.163Z,240
2022-09-15T17:00:00.254Z,240
2022-09-15T17:05:00.199Z,338
2022-09-15T17:10:00.193Z,770
2022-09-15T17:15:00.190Z,1596
2022-09-15T17:20:00.190Z,1799
2022-09-15T17:25:00.237Z,682
2022-09-15T17:30:00.188Z,153
2022-09-15T17:35:00.204Z,153
2022-09-15T17:40:00.280Z,199
2022-09-15T17:45:00.217Z,199
2022-09-15T17:50:00.215Z,169
2022-09-15T17:55:00.226Z,121
2022-09-15T18:00:00.239Z,86
2022-09-15T18:05:00.200Z,45
2022-09-15T18:10:00.205Z,24
2022-09-15T18:15:00.200Z,17
2022-09-15T18:20:00.265Z,10
2022-09-15T18:25:00.196Z,10
2022-09-15T18:30:00.216Z,3
2022-09-15T18:35:00.200Z,3
2022-09-15T18:40:00.288Z,3
2022-09-15T18:45:00.196Z,3
2022-09-15T18:50:00.247Z,3
2022-09-15T18:55:00.232Z,3
2022-09-15T19:00:00.233Z,0
2022-09-15T19:05:00.233Z,0
2022-09-15T19:10:00.231Z,0
2022-09-15T19:15:00.228Z,0
2022-09-15T19:20:00.229Z,0
2022-09-15T19:25:00.226Z,0
2022-09-15T19:30:00.269Z,0
2022-09-15T19:35:00.248Z,0
2022-09-15T19:40:00.332Z,0
2022-09-15T19:45:00.240Z,0
2022-09-15T19:50:00.219Z,0
2022-09-15T19:55:00.230Z,0
2022-09-15T20:00:00.302Z,0
2022-09-15T20:05:00.220Z,0
2022-09-15T20:10:00.230Z,0
2022-09-15T20:15:00.239Z,0
2022-09-15T20:20:00.216Z,0
2022-09-15T20:25:00.196Z,0
2022-09-15T20:30:00.221Z,0
2022-09-15T20:35:00.217Z,0
2022-09-15T20:40:00.288Z,0
2022-09-15T20:45:00.194Z,0
2022-09-15T20:50:00.205Z,0
2022-09-15T20:55:00.209Z,0
2022-09-15T21:00:00.258Z,0
2022-09-15T21:05:00.223Z,0
2022-09-15T21:10:00.242Z,0
2022-09-15T21:15:00.217Z,0
2022-09-15T21:20:00.217Z,0
2022-09-15T21:25:00.199Z,0
2022-09-15T21:30:00.218Z,0
2022-09-15T21:35:00.233Z,0
2022-09-15T21:40:00.355Z,0
2022-09-15T21:45:00.206Z,0
2022-09-15T21:50:00.218Z,0
2022-09-15T21:55:00.216Z,0
2022-09-15T22:00:00.268Z,0
2022-09-15T22:05:00.220Z,0
2022-09-15T22:10:00.203Z,0
2022-09-15T22:15:00.220Z,0
2022-09-15T22:20:00.210Z,0
2022-09-15T22:25:00.216Z,0
2022-09-15T22:30:00.199Z,0
2022-09-15T22:35:00.226Z,0
2022-09-15T22:40:00.346Z,0
2022-09-15T22:45:00.217Z,0
2022-09-15T22:50:00.209Z,0
2022-09-15T22:55:00.257Z,0
2022-09-15T23:00:00.214Z,0
2022-09-15T23:05:00.213Z,0
2022-09-15T23:10:00.214Z,0
2022-09-15T23:15:00.227Z,0
2022-09-15T23:20:00.221Z,0
2022-09-15T23:25:00.215Z,0
2022-09-15T23:30:00.229Z,0
2022-09-15T23:35:00.202Z,0
2022-09-15T23:40:00.311Z,0
2022-09-15T23:45:00.195Z,0
2022-09-15T23:50:00.217Z,0
2022-09-15T23:55:00.236Z,0
